Time;durP1;ratioP1;P1;durP2;ratioP2;P2;SDS_P1;SDS_P2;PMS_P1;PMS_P2;Temp;Humidity;BMP_temperature;BMP_pressure;BME280_temperature;BME280_humidity;BME280_pressure;Samples;Min_cycle;Max_cycle;Signal;HPM_P1;HPM_P2
2023/04/26 00:01:30;;;;;;;6.05;3.45;;;;;;;13.10;63.84;100872.09;5016654;28;20577;-80
2023/04/26 00:03:57;;;;;;;4.10;3.03;;;;;;;13.03;63.56;100861.19;5023669;28;20072;-82
2023/04/26 00:06:28;;;;;;;6.07;3.15;;;;;;;13.00;63.50;100872.13;5033422;28;20081;-82
2023/04/26 00:09:10;;;;;;;8.65;3.70;;;;;;;12.96;63.35;100870.75;5017827;28;20141;-82
2023/04/26 00:11:41;;;;;;;4.05;3.33;;;;;;;12.42;63.40;100787.06;5031591;28;20125;-82
2023/04/26 00:14:08;;;;;;;5.07;3.00;;;;;;;12.94;63.88;100875.38;5033144;28;20053;-83
2023/04/26 00:16:35;;;;;;;5.65;3.40;;;;;;;12.99;63.85;100881.13;5010431;28;20384;-83
2023/04/26 00:19:07;;;;;;;6.53;3.30;;;;;;;12.92;63.52;100856.03;5028103;28;20526;-81
2023/04/26 00:21:39;;;;;;;5.85;2.95;;;;;;;12.77;64.07;100846.84;5011043;28;20053;-82
2023/04/26 00:24:12;;;;;;;8.20;3.78;;;;;;;12.88;63.91;100869.78;5029749;28;20045;-83
2023/04/26 00:26:40;;;;;;;8.02;3.22;;;;;;;12.76;64.23;100861.13;5033035;28;20049;-83
2023/04/26 00:29:07;;;;;;;8.13;3.28;;;;;;;12.77;64.22;100869.00;5016146;28;20123;-81
2023/04/26 00:31:34;;;;;;;6.57;3.35;;;;;;;12.40;64.33;100818.31;5033792;28;20217;-83
2023/04/26 00:34:04;;;;;;;5.28;3.45;;;;;;;12.52;64.12;100825.16;5033247;28;20046;-82
2023/04/26 00:36:31;;;;;;;6.05;2.78;;;;;;;12.80;64.09;100865.19;5020863;28;20397;-83
2023/04/26 00:39:01;;;;;;;3.38;3.08;;;;;;;12.74;63.60;100858.63;5020347;28;20053;-81
2023/04/26 00:41:28;;;;;;;6.10;3.75;;;;;;;12.67;63.86;100856.66;5014936;28;20446;-83
2023/04/26 00:43:55;;;;;;;6.75;3.05;;;;;;;12.34;63.84;100808.25;5032118;28;20045;-82
2023/04/26 00:46:22;;;;;;;8.82;3.00;;;;;;;12.44;64.25;100846.34;5005267;28;20498;-83
2023/04/26 00:48:49;;;;;;;6.40;3.10;;;;;;;12.56;64.47;100871.81;5011786;28;20049;-81
2023/04/26 00:51:21;;;;;;;7.18;3.45;;;;;;;12.30;64.06;100822.81;5032655;28;20148;-82
2023/04/26 00:53:57;;;;;;;7.13;3.92;;;;;;;11.91;63.97;100759.00;5031310;28;20046;-83
2023/04/26 00:56:29;;;;;;;10.40;3.70;;;;;;;12.49;64.08;100856.56;5019948;28;20438;-83
2023/04/26 00:58:56;;;;;;;6.80;3.00;;;;;;;12.55;64.06;100864.84;5029908;28;20060;-82
2023/04/26 01:01:25;;;;;;;7.85;4.10;;;;;;;12.22;64.23;100822.69;5027648;28;20049;-82
2023/04/26 01:03:52;;;;;;;6.68;3.78;;;;;;;12.37;63.74;100848.72;5013424;28;20398;-85
2023/04/26 01:06:19;;;;;;;6.03;4.40;;;;;;;12.50;64.13;100855.56;5029923;28;20060;-82
2023/04/26 01:08:46;;;;;;;6.80;4.10;;;;;;;12.57;64.08;100870.84;5033404;28;20041;-81
2023/04/26 01:11:18;;;;;;;5.95;3.85;;;;;;;12.22;64.36;100820.88;5015907;28;20425;-84
2023/04/26 01:13:46;;;;;;;6.85;4.15;;;;;;;12.02;64.42;100782.78;5031583;28;20148;-83
2023/04/26 01:16:24;;;;;;;8.65;3.53;;;;;;;12.48;63.55;100853.06;5012737;28;20626;-80
2023/04/26 01:18:51;;;;;;;6.22;3.85;;;;;;;12.41;64.11;100851.97;5028028;28;20093;-82
2023/04/26 01:21:23;;;;;;;7.30;4.00;;;;;;;12.30;64.51;100865.41;5030522;28;20042;-81
2023/04/26 01:23:50;;;;;;;6.90;3.37;;;;;;;11.92;64.99;100813.91;5032543;28;20064;-82
2023/04/26 01:26:28;;;;;;;8.85;3.67;;;;;;;11.96;64.42;100810.78;5031313;28;20498;-81
2023/04/26 01:28:59;;;;;;;6.32;3.55;;;;;;;12.04;64.49;100825.22;5014335;28;20349;-83
2023/04/26 01:31:27;;;;;;;4.93;3.20;;;;;;;12.28;64.67;100862.03;5026639;28;20072;-84
2023/04/26 01:33:54;;;;;;;6.78;3.40;;;;;;;12.03;64.38;100843.00;5032032;28;20041;-84
2023/04/26 01:36:27;;;;;;;4.63;3.20;;;;;;;12.33;64.21;100867.78;5015923;28;20102;-81
2023/04/26 01:38:54;;;;;;;4.15;2.97;;;;;;;12.13;63.30;100808.41;5012345;28;20057;-83
2023/04/26 01:41:23;;;;;;;5.07;2.92;;;;;;;12.49;62.31;100835.25;5030934;28;20491;-84
2023/04/26 01:43:54;;;;;;;6.65;3.40;;;;;;;12.27;63.06;100828.44;5034812;28;20134;-84
2023/04/26 01:46:21;;;;;;;3.92;2.80;;;;;;;12.38;63.75;100860.25;5022246;28;20387;-84
2023/04/26 01:48:48;;;;;;;7.53;3.20;;;;;;;12.38;63.25;100868.22;5024830;28;20056;-83
2023/04/26 01:51:17;;;;;;;7.38;3.20;;;;;;;12.37;63.04;100869.19;5033966;28;20049;-84
2023/04/26 01:53:44;;;;;;;3.72;2.60;;;;;;;12.25;63.36;100862.34;5035337;28;20053;-83
2023/04/26 01:56:17;;;;;;;4.88;2.85;;;;;;;12.31;63.11;100883.06;5038339;28;20051;-82
2023/04/26 01:58:44;;;;;;;4.50;2.95;;;;;;;11.89;62.61;100791.06;5038005;28;20053;-81
2023/04/26 02:01:11;;;;;;;5.20;3.17;;;;;;;12.44;61.91;100880.13;5038010;28;20407;-83
2023/04/26 02:03:38;;;;;;;5.18;2.92;;;;;;;12.36;62.22;100872.84;5042522;28;20061;-84
2023/04/26 02:06:04;;;;;;;5.13;2.88;;;;;;;12.18;62.48;100854.06;5019572;28;20056;-81
2023/04/26 02:08:31;;;;;;;6.05;3.05;;;;;;;11.70;63.10;100785.69;5015541;28;20704;-83
2023/04/26 02:11:04;;;;;;;5.07;2.70;;;;;;;12.11;62.75;100851.16;5028854;28;20041;-83
2023/04/26 02:13:31;;;;;;;7.57;3.28;;;;;;;12.08;62.63;100839.91;5041143;28;20196;-84
2023/04/26 02:16:00;;;;;;;3.95;2.90;;;;;;;12.37;62.18;100871.84;5016180;28;20056;-85
2023/04/26 02:18:28;;;;;;;6.20;2.90;;;;;;;12.51;61.64;100878.56;5035270;28;20051;-83
2023/04/26 02:20:56;;;;;;;5.70;2.70;;;;;;;12.20;61.48;100849.44;5034184;28;20056;-81
2023/04/26 02:23:23;;;;;;;4.65;2.42;;;;;;;12.38;61.17;100889.53;5017214;28;20041;-83
2023/04/26 02:25:52;;;;;;;10.27;3.10;;;;;;;12.18;61.20;100862.91;5015395;28;20045;-82
2023/04/26 02:28:19;;;;;;;3.83;2.83;;;;;;;12.33;61.76;100891.75;5013471;28;20432;-83
2023/04/26 02:30:46;;;;;;;4.30;2.65;;;;;;;12.26;61.87;100890.63;5029716;28;20056;-84
2023/04/26 02:33:16;;;;;;;3.17;2.45;;;;;;;12.30;61.72;100889.38;5030088;28;20056;-83
2023/04/26 02:35:42;;;;;;;5.43;2.95;;;;;;;12.08;62.24;100861.22;5016099;28;20048;-82
2023/04/26 02:38:21;;;;;;;6.43;2.85;;;;;;;12.09;62.72;100874.38;5010060;28;20850;-83
2023/04/26 02:41:01;;;;;;;4.32;2.58;;;;;;;12.07;62.66;100880.84;5029396;28;21077;-82
2023/04/26 02:43:28;;;;;;;4.93;2.63;;;;;;;12.14;62.71;100888.13;5030220;28;20045;-81
2023/04/26 02:45:57;;;;;;;2.78;2.47;;;;;;;11.95;62.87;100856.16;5002359;28;20213;-82
2023/04/26 02:48:24;;;;;;;4.68;3.05;;;;;;;11.94;63.04;100871.31;5004322;28;20041;-82
2023/04/26 02:50:52;;;;;;;6.45;3.10;;;;;;;12.05;62.64;100888.94;5009129;28;20049;-82
2023/04/26 02:53:18;;;;;;;7.30;2.95;;;;;;;12.05;63.20;100883.63;5010471;28;20060;-82
2023/04/26 02:55:45;;;;;;;6.60;2.92;;;;;;;11.67;62.48;100824.03;5027266;28;20077;-82
2023/04/26 02:58:12;;;;;;;3.88;2.58;;;;;;;12.00;62.70;100877.03;5022663;28;20049;-83
2023/04/26 03:00:47;;;;;;;3.63;2.58;;;;;;;11.55;63.05;100811.84;5034385;28;20300;-82
2023/04/26 03:03:14;;;;;;;5.45;3.13;;;;;;;11.36;62.53;100779.91;5002274;28;20064;-82
2023/04/26 03:05:45;;;;;;;4.45;2.80;;;;;;;11.98;63.34;100887.81;5023662;28;20049;-82
2023/04/26 03:08:13;;;;;;;4.63;2.88;;;;;;;10.42;63.11;100640.31;5007670;28;20135;-84
2023/04/26 03:10:40;;;;;;;4.25;2.40;;;;;;;11.77;63.42;100859.50;5013268;28;20293;-83
2023/04/26 03:13:24;;;;;;;3.92;2.50;;;;;;;11.72;62.81;100848.44;5036150;28;20461;-82
2023/04/26 03:15:52;;;;;;;3.60;2.38;;;;;;;11.94;62.10;100881.09;5027669;28;20072;-82
2023/04/26 03:18:19;;;;;;;3.35;2.65;;;;;;;11.82;62.85;100893.66;5010128;28;20502;-82
2023/04/26 03:20:45;;;;;;;3.15;2.67;;;;;;;11.86;62.92;100889.72;5030549;28;20547;-81
2023/04/26 03:23:12;;;;;;;5.75;2.78;;;;;;;11.99;62.90;100889.50;5023209;28;20088;-81
2023/04/26 03:25:40;;;;;;;4.32;2.65;;;;;;;12.01;63.13;100892.03;5011425;28;20049;-83
2023/04/26 03:28:06;;;;;;;4.00;2.67;;;;;;;11.87;63.48;100885.28;4999663;28;20519;-83
2023/04/26 03:30:36;;;;;;;6.30;3.10;;;;;;;11.49;63.33;100844.31;4995599;28;20057;-82
2023/04/26 03:33:05;;;;;;;4.72;3.13;;;;;;;11.71;63.25;100886.63;5014363;28;20124;-83
2023/04/26 03:35:32;;;;;;;6.72;3.08;;;;;;;11.68;63.86;100884.25;4998937;28;20057;-83
2023/04/26 03:37:59;;;;;;;6.07;2.83;;;;;;;11.82;63.13;100914.06;5014288;28;20482;-82
2023/04/26 03:40:29;;;;;;;5.18;3.22;;;;;;;11.75;63.50;100911.97;4996460;28;20045;-81
2023/04/26 03:42:56;;;;;;;4.05;2.78;;;;;;;11.63;63.18;100906.91;5019184;28;20376;-81
2023/04/26 03:45:25;;;;;;;4.47;2.72;;;;;;;11.62;63.42;100911.38;5009954;28;20052;-82
2023/04/26 03:47:53;;;;;;;3.28;2.95;;;;;;;11.26;63.38;100873.78;5010688;28;20057;-81
2023/04/26 03:50:23;;;;;;;7.13;2.90;;;;;;;11.48;64.03;100917.91;5007341;28;20107;-84
2023/04/26 03:52:50;;;;;;;10.82;3.08;;;;;;;11.44;64.20;100920.97;5028032;28;20553;-82
2023/04/26 03:55:20;;;;;;;13.32;3.63;;;;;;;11.20;63.87;100889.41;5029918;28;20049;-82
2023/04/26 03:57:52;;;;;;;6.25;2.90;;;;;;;11.43;64.69;100927.25;5013014;28;20430;-81
2023/04/26 04:00:22;;;;;;;4.55;3.00;;;;;;;11.44;64.53;100931.63;5018795;28;20061;-83
2023/04/26 04:02:49;;;;;;;8.70;3.35;;;;;;;11.38;64.21;100932.13;5017364;28;20273;-82
2023/04/26 04:05:18;;;;;;;8.00;3.10;;;;;;;11.40;64.48;100938.16;5019090;28;20150;-83
2023/04/26 04:07:45;;;;;;;5.40;2.92;;;;;;;10.52;63.93;100804.09;5033406;28;20041;-82
2023/04/26 04:10:25;;;;;;;3.63;2.53;;;;;;;11.13;62.84;100873.16;5018660;28;20045;-82
2023/04/26 04:12:53;;;;;;;3.63;2.63;;;;;;;11.45;63.11;100928.81;5031008;28;20307;-81
2023/04/26 04:15:20;;;;;;;5.55;2.50;;;;;;;11.44;63.07;100947.56;5013466;28;20088;-83
2023/04/26 04:17:50;;;;;;;5.55;2.95;;;;;;;11.37;63.03;100910.03;5010861;28;20049;-82
2023/04/26 04:20:17;;;;;;;7.75;2.83;;;;;;;11.54;62.92;100937.81;5025262;28;20725;-83
2023/04/26 04:22:44;;;;;;;5.22;3.25;;;;;;;11.55;62.39;100934.16;5026685;28;20423;-82
2023/04/26 04:25:12;;;;;;;5.25;2.70;;;;;;;11.45;62.71;100923.47;5024879;28;20060;-82
2023/04/26 04:27:42;;;;;;;5.15;2.60;;;;;;;10.98;62.55;100864.69;5028635;28;20045;-81
2023/04/26 04:30:13;;;;;;;9.40;2.97;;;;;;;11.44;63.08;100943.09;5030347;28;20145;-82
2023/04/26 04:32:46;;;;;;;6.53;2.95;;;;;;;11.15;62.91;100894.28;5001003;28;20443;-84
2023/04/26 04:35:14;;;;;;;2.47;2.17;;;;;;;11.49;62.28;100937.38;5028238;28;20195;-83
2023/04/26 04:37:42;;;;;;;3.25;2.83;;;;;;;11.51;62.49;100948.72;5004124;28;20415;-83
2023/04/26 04:40:10;;;;;;;5.40;3.25;;;;;;;11.50;62.56;100957.66;5005785;28;20263;-81
2023/04/26 04:42:37;;;;;;;3.50;2.53;;;;;;;11.53;62.82;100982.16;5027241;28;20047;-81
2023/04/26 04:45:09;;;;;;;7.13;2.95;;;;;;;11.19;63.33;100911.63;5007655;28;20064;-83
2023/04/26 04:47:39;;;;;;;5.47;3.28;;;;;;;11.41;63.31;100958.44;5013047;28;20053;-81
2023/04/26 04:50:08;;;;;;;8.43;3.13;;;;;;;11.54;63.49;100981.19;5012632;28;20472;-82
2023/04/26 04:52:43;;;;;;;3.78;2.92;;;;;;;11.37;63.33;100963.19;5020571;28;20413;-79
2023/04/26 04:55:10;;;;;;;6.30;3.22;;;;;;;11.30;63.48;100935.47;5002462;28;20073;-81
2023/04/26 04:57:39;;;;;;;6.18;3.47;;;;;;;11.43;63.05;100961.81;5013276;28;20080;-81
2023/04/26 05:00:11;;;;;;;9.55;4.05;;;;;;;11.44;62.85;100966.16;4994644;28;20126;-82
2023/04/26 05:02:38;;;;;;;14.20;6.88;;;;;;;11.75;62.55;101010.38;5017944;28;20300;-80
2023/04/26 05:05:06;;;;;;;9.45;4.45;;;;;;;11.70;62.26;100986.00;4985817;28;20724;-82
2023/04/26 05:07:35;;;;;;;10.13;4.75;;;;;;;11.83;61.84;100995.56;5000129;28;20127;-82
2023/04/26 05:10:07;;;;;;;6.68;3.90;;;;;;;12.01;61.83;101036.53;5002790;28;20093;-81
2023/04/26 05:12:36;;;;;;;9.52;4.32;;;;;;;12.02;61.36;101019.63;5005077;28;20056;-82
2023/04/26 05:15:05;;;;;;;9.57;5.60;;;;;;;12.04;61.62;101019.47;5008364;28;20049;-83
2023/04/26 05:17:35;;;;;;;8.45;4.75;;;;;;;11.85;61.66;101005.09;5010988;28;20215;-80
2023/04/26 05:20:06;;;;;;;8.45;4.50;;;;;;;11.84;62.16;101007.88;4996842;28;20152;-81
2023/04/26 05:22:38;;;;;;;9.70;5.05;;;;;;;11.93;62.14;101029.25;5000747;28;20122;-84
2023/04/26 05:25:06;;;;;;;8.82;5.60;;;;;;;11.64;61.93;100962.59;5017465;28;20057;-82
2023/04/26 05:27:36;;;;;;;13.80;5.55;;;;;;;12.07;61.99;101029.84;5019905;28;20456;-82
2023/04/26 05:30:05;;;;;;;9.23;5.18;;;;;;;11.26;62.23;100895.03;4999644;28;20088;-83
2023/04/26 05:32:35;;;;;;;8.95;5.65;;;;;;;12.24;61.84;101047.00;4995472;28;20064;-82
2023/04/26 05:35:03;;;;;;;9.85;6.40;;;;;;;12.35;62.29;101060.16;5017710;28;20499;-82
2023/04/26 05:37:39;;;;;;;9.52;5.35;;;;;;;12.43;61.56;101041.72;5010783;28;20046;-81
2023/04/26 05:40:07;;;;;;;13.35;5.85;;;;;;;12.24;60.92;101026.53;4993588;28;20049;-83
2023/04/26 05:42:37;;;;;;;10.57;5.28;;;;;;;12.35;61.93;101038.88;4985967;28;20084;-83
2023/04/26 05:45:04;;;;;;;10.98;5.15;;;;;;;11.80;61.47;100948.81;5008818;28;20404;-82
2023/04/26 05:47:34;;;;;;;17.83;6.15;;;;;;;12.59;61.11;101073.09;4999600;28;20056;-82
2023/04/26 05:50:05;;;;;;;10.25;5.63;;;;;;;12.53;61.16;101047.03;5004034;28;20041;-80
2023/04/26 05:52:40;;;;;;;10.07;5.78;;;;;;;12.52;60.93;101034.69;5005474;28;20073;-83
2023/04/26 05:55:07;;;;;;;18.00;6.43;;;;;;;12.82;60.97;101084.38;4992867;28;20053;-82
2023/04/26 05:57:34;;;;;;;11.38;6.35;;;;;;;12.90;60.83;101084.50;4999048;28;20123;-82
2023/04/26 06:03:40;;;;;;;13.48;6.43;;;;;;;13.03;60.43;101082.41;5007820;28;20653;-83
2023/04/26 06:06:11;;;;;;;10.40;6.00;;;;;;;12.91;60.10;101045.38;4991919;28;20463;-82
2023/04/26 06:08:51;;;;;;;16.67;6.45;;;;;;;12.81;59.50;101029.38;4999949;28;20064;-83
2023/04/26 06:11:18;;;;;;;11.00;6.00;;;;;;;13.27;59.62;101094.47;5008204;28;20202;-80
2023/04/26 06:13:47;;;;;;;12.25;5.57;;;;;;;13.10;59.18;101049.84;5019480;28;20473;-82
2023/04/26 06:16:18;;;;;;;12.95;5.95;;;;;;;13.09;58.79;101048.19;5031279;28;20037;-82
2023/04/26 06:18:45;;;;;;;11.27;6.28;;;;;;;13.26;58.49;101050.13;5021108;28;20441;-83
2023/04/26 06:21:30;;;;;;;10.13;5.88;;;;;;;12.81;58.36;100962.78;5019815;28;20636;-81
2023/04/26 06:23:59;;;;;;;10.80;4.80;;;;;;;13.56;57.86;101061.59;5017580;28;20561;-81
2023/04/26 06:26:26;;;;;;;10.20;4.75;;;;;;;13.77;56.76;101091.56;5020369;28;20339;-81
2023/04/26 06:28:52;;;;;;;6.88;4.47;;;;;;;13.17;56.71;100971.00;5008527;28;20175;-80
2023/04/26 06:31:22;;;;;;;7.47;4.60;;;;;;;13.89;56.74;101082.41;4996611;28;20053;-82
2023/04/26 06:33:51;;;;;;;7.50;4.50;;;;;;;13.81;56.19;101060.09;5001020;28;20166;-81
2023/04/26 06:36:19;;;;;;;12.18;4.68;;;;;;;14.11;56.52;101089.19;5003602;28;20049;-83
2023/04/26 06:38:46;;;;;;;7.28;4.85;;;;;;;14.08;55.96;101078.81;5010507;28;20045;-82
2023/04/26 06:41:24;;;;;;;12.57;6.20;;;;;;;14.26;56.12;101091.38;5006228;28;20124;-82
2023/04/26 06:43:54;;;;;;;12.27;6.20;;;;;;;14.23;56.21;101072.97;5022255;28;20274;-81
2023/04/26 06:46:29;;;;;;;10.43;5.97;;;;;;;14.36;56.15;101091.31;5000765;28;20037;-80
2023/04/26 06:48:55;;;;;;;9.98;6.15;;;;;;;14.48;56.22;101100.81;5020742;28;20053;-79
2023/04/26 06:51:22;;;;;;;9.57;6.40;;;;;;;14.57;56.27;101101.78;5013938;28;20041;-80
2023/04/26 06:53:51;;;;;;;13.60;7.07;;;;;;;14.52;57.11;101086.16;5013533;28;20415;-79
2023/04/26 06:56:19;;;;;;;10.43;6.63;;;;;;;14.64;56.00;101114.38;5019752;28;20053;-81
2023/04/26 06:59:01;;;;;;;12.77;6.22;;;;;;;14.69;56.13;101112.09;5002315;28;20060;-81
2023/04/26 07:01:38;;;;;;;10.52;6.97;;;;;;;14.73;55.83;101104.59;5022465;28;20090;-81
2023/04/26 07:04:13;;;;;;;11.85;7.13;;;;;;;14.64;55.75;101111.72;5000484;28;20133;-80
2023/04/26 07:06:43;;;;;;;12.50;6.90;;;;;;;14.66;55.70;101099.06;4970843;28;20085;-80
2023/04/26 07:09:11;;;;;;;10.63;6.07;;;;;;;14.84;56.18;101122.28;4985522;28;20050;-79
2023/04/26 07:11:47;;;;;;;7.82;6.40;;;;;;;14.90;55.70;101129.66;4977405;28;20046;-79
2023/04/26 07:14:17;;;;;;;10.98;6.60;;;;;;;15.08;55.71;101129.69;4983890;28;20293;-80
2023/04/26 07:16:48;;;;;;;14.20;7.80;;;;;;;15.00;55.59;101105.53;4980401;28;20054;-79
2023/04/26 07:19:15;;;;;;;7.68;6.68;;;;;;;15.20;55.71;101128.47;4997725;28;21052;-80
2023/04/26 07:21:44;;;;;;;12.95;7.50;;;;;;;14.91;56.12;101102.81;4974956;28;20049;-79
2023/04/26 07:24:12;;;;;;;8.90;6.97;;;;;;;15.24;55.36;101124.47;4986841;28;20050;-79
2023/04/26 07:26:40;;;;;;;12.73;8.05;;;;;;;14.60;55.78;101045.38;4986932;28;20539;-80
2023/04/26 07:29:08;;;;;;;7.78;6.00;;;;;;;15.09;55.52;101126.84;4985668;28;20054;-80
2023/04/26 07:31:36;;;;;;;14.35;6.05;;;;;;;14.88;55.23;101070.16;4988455;28;20249;-80
2023/04/26 07:34:05;;;;;;;13.82;7.13;;;;;;;15.21;55.51;101119.44;4993251;28;20049;-80
2023/04/26 07:36:35;;;;;;;9.07;7.25;;;;;;;14.90;55.74;101078.88;4988943;28;20046;-81
2023/04/26 07:39:04;;;;;;;14.82;8.07;;;;;;;14.74;55.98;101043.00;4978896;28;20074;-81
2023/04/26 07:41:34;;;;;;;11.35;7.47;;;;;;;15.06;55.92;101086.22;4979801;28;20073;-81
2023/04/26 07:44:01;;;;;;;13.73;7.63;;;;;;;15.23;56.16;101111.28;4987246;28;20045;-81
2023/04/26 07:46:33;;;;;;;14.02;7.43;;;;;;;15.33;56.03;101122.72;4991922;28;20050;-82
2023/04/26 07:49:02;;;;;;;14.88;8.48;;;;;;;15.15;56.15;101094.16;4987416;28;20309;-82
2023/04/26 07:51:36;;;;;;;15.48;8.20;;;;;;;15.11;56.92;101075.91;4990406;28;20431;-81
2023/04/26 07:54:08;;;;;;;16.73;7.75;;;;;;;15.35;56.60;101104.69;4972920;28;20096;-81
2023/04/26 07:56:38;;;;;;;14.73;8.48;;;;;;;15.55;56.79;101116.84;4994884;28;20076;-82
2023/04/26 07:59:07;;;;;;;16.67;9.27;;;;;;;15.63;56.30;101112.56;4994019;28;20042;-83
2023/04/26 08:01:34;;;;;;;12.25;7.47;;;;;;;15.53;56.54;101070.69;4995951;28;20057;-82
2023/04/26 08:04:04;;;;;;;16.45;8.38;;;;;;;15.84;56.25;101109.56;4993447;28;20478;-82
2023/04/26 08:06:32;;;;;;;18.67;8.60;;;;;;;15.28;56.17;101050.97;4988424;28;20050;-81
2023/04/26 08:08:59;;;;;;;18.48;8.02;;;;;;;15.66;56.55;101113.09;5025006;28;20053;-83
2023/04/26 08:11:32;;;;;;;17.40;7.93;;;;;;;15.74;56.22;101121.22;5006230;28;20339;-82
2023/04/26 08:14:05;;;;;;;14.15;8.00;;;;;;;15.78;56.52;101111.03;5013405;28;20058;-82
2023/04/26 08:16:36;;;;;;;14.80;8.48;;;;;;;15.78;56.66;101106.53;5025000;28;20665;-82
2023/04/26 08:19:03;;;;;;;20.23;8.82;;;;;;;15.00;56.73;100986.09;5008342;28;20488;-81
2023/04/26 08:21:31;;;;;;;10.02;6.78;;;;;;;15.52;55.80;101058.31;4988912;28;20504;-81
2023/04/26 08:23:58;;;;;;;11.90;6.05;;;;;;;15.95;55.20;101118.16;5019404;28;20444;-82
2023/04/26 08:26:47;;;;;;;14.85;7.55;;;;;;;15.59;55.49;101043.31;5023713;28;20604;-80
2023/04/26 08:29:22;;;;;;;11.98;8.40;;;;;;;16.15;55.93;101128.66;5004976;28;20058;-80
2023/04/26 08:31:53;;;;;;;15.73;8.80;;;;;;;16.16;56.04;101119.59;4981866;28;20535;-82
2023/04/26 08:34:28;;;;;;;15.93;9.00;;;;;;;15.83;55.65;101049.00;4989812;28;20065;-79
2023/04/26 08:36:55;;;;;;;15.32;8.15;;;;;;;16.35;55.27;101124.69;5005726;28;20176;-82
2023/04/26 08:39:23;;;;;;;13.45;4.97;;;;;;;16.33;54.40;101112.47;4997323;28;20346;-79
2023/04/26 08:41:54;;;;;;;9.73;5.40;;;;;;;16.43;53.20;101116.72;4999171;28;20041;-80
2023/04/26 08:44:24;;;;;;;11.63;6.22;;;;;;;15.97;53.75;101041.19;4997372;28;20357;-80
2023/04/26 08:47:12;;;;;;;12.60;6.78;;;;;;;16.27;54.23;101072.94;5004845;28;20063;-79
2023/04/26 08:49:52;;;;;;;10.93;6.60;;;;;;;16.64;54.48;101118.94;5005605;28;20043;-82
2023/04/26 08:52:28;;;;;;;8.65;5.70;;;;;;;16.32;53.74;101039.31;5001839;28;20045;-82
2023/04/26 08:54:59;;;;;;;9.30;5.18;;;;;;;16.90;53.43;101128.75;5020662;28;20511;-81
2023/04/26 08:57:46;;;;;;;10.85;6.18;;;;;;;16.87;53.70;101097.75;5009864;28;20458;-82
2023/04/26 09:00:24;;;;;;;11.45;4.70;;;;;;;17.06;52.56;101128.78;5013759;28;20045;-80
2023/04/26 09:02:52;;;;;;;10.77;4.38;;;;;;;17.07;51.15;101108.16;5000432;28;20061;-80
2023/04/26 09:05:26;;;;;;;12.82;3.55;;;;;;;17.34;50.79;101119.56;4982951;28;20077;-80
2023/04/26 09:08:01;;;;;;;10.40;4.63;;;;;;;17.51;51.54;101130.13;4974412;28;20054;-81
2023/04/26 09:10:32;;;;;;;9.13;4.95;;;;;;;17.36;51.72;101101.47;4967540;28;20061;-80
2023/04/26 09:13:02;;;;;;;9.38;5.88;;;;;;;17.38;52.73;101120.88;4976077;28;20062;-81
2023/04/26 09:15:31;;;;;;;16.60;5.22;;;;;;;17.23;52.57;101084.03;4998344;28;20053;-81
2023/04/26 09:18:18;;;;;;;4.43;2.60;;;;;;;17.78;48.77;101122.69;4998032;28;20050;-82
2023/04/26 09:21:04;;;;;;;8.13;4.07;;;;;;;17.85;49.13;101115.66;4980351;28;20058;-83
2023/04/26 09:23:31;;;;;;;5.38;4.13;;;;;;;17.72;49.41;101072.38;4987203;28;20056;-82
2023/04/26 09:26:19;;;;;;;8.65;4.50;;;;;;;17.58;49.63;101014.84;4972069;28;20093;-83
2023/04/26 09:28:47;;;;;;;4.70;2.45;;;;;;;18.20;48.21;101086.66;4975757;28;20045;-83
2023/04/26 09:31:45;;;;;;;6.50;2.58;;;;;;;18.30;47.62;101111.50;4980818;28;20231;-80
2023/04/26 09:34:15;;;;;;;6.28;2.33;;;;;;;18.32;47.26;101085.25;4980734;28;20061;-82
2023/04/26 09:36:55;;;;;;;2.42;2.03;;;;;;;18.15;47.17;101032.63;4973680;28;20488;-82
2023/04/26 09:39:50;;;;;;;5.80;2.55;;;;;;;18.91;45.99;101086.63;4996633;28;20591;-82
2023/04/26 09:42:18;;;;;;;6.93;2.88;;;;;;;19.12;46.53;101110.19;4990504;28;20234;-83
2023/04/26 09:44:45;;;;;;;11.60;3.08;;;;;;;19.18;46.51;101106.78;4983908;28;20245;-82
2023/04/26 09:47:12;;;;;;;6.28;3.70;;;;;;;19.28;46.90;101115.44;4986476;28;20050;-83
2023/04/26 09:49:47;;;;;;;11.60;3.80;;;;;;;18.90;46.77;101047.31;4975115;28;20141;-83
2023/04/26 09:52:15;;;;;;;7.25;4.05;;;;;;;19.21;46.63;101080.34;4980759;28;20291;-80
2023/04/26 09:54:46;;;;;;;11.73;4.20;;;;;;;19.07;46.77;101043.44;4994938;28;20129;-83
2023/04/26 09:57:29;;;;;;;3.90;3.33;;;;;;;19.46;46.56;101079.28;5007713;28;20207;-83
2023/04/26 10:00:11;;;;;;;5.70;3.80;;;;;;;19.75;46.28;101111.66;5005184;28;20306;-82
2023/04/26 10:02:43;;;;;;;6.72;3.65;;;;;;;19.64;45.39;101087.84;4997090;28;20057;-82
2023/04/26 10:05:37;;;;;;;6.85;3.40;;;;;;;19.52;45.53;101068.63;5017648;28;20550;-81
2023/04/26 10:08:09;;;;;;;6.72;3.45;;;;;;;20.01;45.90;101100.44;5004542;28;20084;-83
2023/04/26 10:10:46;;;;;;;;;;;;;;;20.04;44.67;101104.63;5018502;28;20050;-81
2023/04/26 10:13:15;;;;;;;8.02;4.00;;;;;;;20.18;44.63;101094.84;5008568;28;20371;-82
2023/04/26 10:15:58;;;;;;;5.55;4.40;;;;;;;20.42;44.56;101085.63;5009539;28;20479;-83
2023/04/26 10:18:25;;;;;;;7.05;3.88;;;;;;;20.61;44.42;101090.44;5019672;28;20049;-83
2023/04/26 10:21:07;;;;;;;6.32;4.22;;;;;;;20.69;43.39;101093.00;5002997;28;20077;-83
2023/04/26 10:23:44;;;;;;;3.90;3.50;;;;;;;20.84;43.57;101084.03;5007871;28;20057;-83
2023/04/26 10:26:56;;;;;;;8.45;4.43;;;;;;;20.87;43.01;101089.03;5003324;28;20104;-82
2023/04/26 10:29:31;;;;;;;3.65;3.30;;;;;;;21.01;43.77;101088.13;4974133;28;20502;-83
2023/04/26 10:32:03;;;;;;;4.53;3.15;;;;;;;21.04;42.44;101087.72;5009139;28;20068;-82
2023/04/26 10:34:32;;;;;;;5.53;3.35;;;;;;;20.83;42.52;101028.41;4988756;28;20139;-82
2023/04/26 10:37:16;;;;;;;5.35;3.55;;;;;;;21.57;42.14;101084.66;5025324;28;20388;-82
2023/04/26 10:39:45;;;;;;;6.40;3.78;;;;;;;21.69;41.33;101071.44;5010014;28;20299;-81
2023/04/26 10:42:32;;;;;;;6.55;4.28;;;;;;;21.69;40.72;101033.63;5019617;28;20068;-83
2023/04/26 10:45:29;;;;;;;6.70;3.50;;;;;;;21.90;40.86;101063.28;5009111;28;20329;-82
2023/04/26 10:48:29;;;;;;;7.55;4.80;;;;;;;22.12;40.93;101041.53;5009426;28;20128;-81
2023/04/26 10:51:11;;;;;;;4.57;3.38;;;;;;;22.23;39.54;101024.75;5019832;28;20267;-80
2023/04/26 10:53:46;;;;;;;5.68;3.90;;;;;;;22.39;39.56;101078.47;5003644;28;20214;-81
2023/04/26 10:56:22;;;;;;;4.72;4.00;;;;;;;22.43;38.53;101075.38;4988162;28;20395;-80
2023/04/26 10:59:10;;;;;;;3.45;3.13;;;;;;;22.16;39.08;101022.00;4984065;28;20148;-81
2023/04/26 11:01:46;;;;;;;3.83;3.20;;;;;;;22.49;38.63;101044.81;5008590;28;20049;-79
2023/04/26 11:04:15;;;;;;;5.30;2.88;;;;;;;22.75;38.35;101061.09;5015696;28;20577;-81
2023/04/26 11:06:56;;;;;;;6.47;3.80;;;;;;;22.76;37.30;101030.28;5027554;28;20053;-80
2023/04/26 11:09:39;;;;;;;3.90;2.75;;;;;;;23.07;37.52;101047.00;5022948;28;20458;-82
2023/04/26 11:12:16;;;;;;;5.85;3.22;;;;;;;;;;5023641;28;20040;-80
2023/04/26 11:14:46;;;;;;;3.15;2.58;;;;;;;23.32;37.21;101050.72;5035678;28;20395;-80
2023/04/26 11:17:13;;;;;;;3.90;2.63;;;;;;;23.54;36.61;101043.19;5012162;28;20065;-83
2023/04/26 11:19:40;;;;;;;3.00;2.70;;;;;;;23.64;36.67;101043.63;5004963;28;20072;-82
2023/04/26 11:22:14;;;;;;;5.78;3.33;;;;;;;23.39;36.45;100988.41;5027454;28;20212;-80
2023/04/26 11:24:46;;;;;;;6.05;3.70;;;;;;;23.82;35.51;101034.00;5025208;28;20045;-80
2023/04/26 11:27:12;;;;;;;3.63;2.92;;;;;;;23.30;35.98;100955.28;5017090;28;20057;-82
2023/04/26 11:29:39;;;;;;;7.20;3.05;;;;;;;24.07;35.37;101026.78;5029149;28;20045;-82
2023/04/26 11:32:07;;;;;;;5.53;2.83;;;;;;;23.00;34.90;100852.06;5031849;28;20391;-82
2023/04/26 11:34:36;;;;;;;6.28;3.00;;;;;;;23.68;34.97;100971.66;5011044;28;20400;-81
2023/04/26 11:37:05;;;;;;;5.72;2.22;;;;;;;23.99;34.63;101018.91;5018157;28;20037;-81
2023/04/26 11:39:36;;;;;;;4.03;2.88;;;;;;;23.65;34.77;100930.63;5027012;28;20096;-81
2023/04/26 11:42:10;;;;;;;3.60;2.72;;;;;;;24.30;33.23;101017.31;4992140;28;20077;-83
2023/04/26 11:44:50;;;;;;;5.82;2.72;;;;;;;23.83;34.46;100921.78;5008296;28;20057;-83
2023/04/26 11:47:29;;;;;;;7.45;3.10;;;;;;;23.56;34.11;100843.28;5007182;28;20049;-82